| time (UTC) | temp F | wind direction | speed MPH | gust MPH | rain 1hr in | rain 24hr in | rain mn in | humidity % | barometer mb |
| 20260509181544 | 62 | 278 | 13.0 | 26.0 | 0.00 | 0.00 | 0.00 | 33 | 1016.9 |
| 20260509180043 | 61 | 303 | 13.0 | 24.0 | 0.00 | 0.00 | 0.00 | 33 | 1017.1 |
| 20260509174542 | 61 | 320 | 15.0 | 28.0 | 0.00 | 0.00 | 0.00 | 34 | 1017.3 |
| 20260509173036 | 61 | 266 | 11.0 | 26.0 | 0.00 | 0.00 | 0.00 | 34 | 1017.4 |
| 20260509171537 | 60 | 309 | 12.0 | 22.0 | 0.00 | 0.00 | 0.00 | 35 | 1017.4 |
| 20260509170043 | 59 | 305 | 14.0 | 26.0 | 0.00 | 0.00 | 0.00 | 35 | 1017.4 |
| 20260509164542 | 59 | 308 | 15.0 | 28.0 | 0.00 | 0.00 | 0.00 | 36 | 1017.4 |
| 20260509163045 | 59 | 297 | 12.0 | 24.0 | 0.00 | 0.00 | 0.00 | 36 | 1017.4 |
| 20260509161544 | 58 | 327 | 16.0 | 27.0 | 0.00 | 0.00 | 0.00 | 36 | 1017.3 |
| 20260509160047 | 58 | 322 | 17.0 | 28.0 | 0.00 | 0.00 | 0.00 | 37 | 1017.1 |
| 20260509154546 | 58 | 321 | 13.0 | 23.0 | 0.00 | 0.00 | 0.00 | 41 | 1017.1 |
| 20260509153043 | 57 | 347 | 10.0 | 14.0 | 0.00 | 0.00 | 0.00 | 41 | 1017.1 |
| 20260509151542 | 56 | 314 | 8.0 | 13.0 | 0.00 | 0.00 | 0.00 | 41 | 1016.9 |
| 20260509150044 | 56 | 343 | 7.0 | 16.0 | 0.00 | 0.00 | 0.00 | 41 | 1016.8 |
| 20260509144544 | 56 | 228 | 14.0 | 22.0 | 0.00 | 0.00 | 0.00 | 37 | 1016.6 |
| 20260509143049 | 54 | 353 | 4.0 | 11.0 | 0.00 | 0.00 | 0.00 | 47 | 1016.9 |
| 20260509141548 | 53 | 0 | 2.0 | 5.0 | 0.00 | 0.00 | 0.00 | 46 | 1016.8 |
| 20260509140048 | 51 | 59 | 2.0 | 7.0 | 0.00 | 0.00 | 0.00 | 51 | 1016.7 |
| 20260509134537 | 52 | 295 | 2.0 | 12.0 | 0.00 | 0.00 | 0.00 | 44 | 1016.5 |
| 20260509133043 | 50 | 278 | 4.0 | 8.0 | 0.00 | 0.00 | 0.00 | 48 | 1016.5 |
| 20260509131539 | 49 | 295 | 8.0 | 14.0 | 0.00 | 0.00 | 0.00 | 48 | 1016.2 |
| 20260509130044 | 47 | 239 | 5.0 | 11.0 | 0.00 | 0.00 | 0.00 | 48 | 1016.1 |
| 20260509124542 | 48 | 256 | 3.0 | 10.0 | 0.00 | 0.00 | 0.00 | 47 | 1016.2 |
| 20260509123048 | 48 | 221 | 3.0 | 8.0 | 0.00 | 0.00 | 0.00 | 49 | 1016.2 |
| 20260509121535 | 49 | 152 | 7.0 | 10.0 | 0.00 | 0.00 | 0.00 | 45 | 1016.0 |
| 20260509120045 | 49 | 135 | 3.0 | 8.0 | 0.00 | 0.00 | 0.00 | 46 | 1015.9 |
| 20260509114544 | 50 | 237 | 3.0 | 12.0 | 0.00 | 0.00 | 0.00 | 47 | 1015.8 |
| 20260509113047 | 49 | 124 | 5.0 | 9.0 | 0.00 | 0.00 | 0.00 | 56 | 1015.4 |
| 20260509111546 | 48 | 151 | 0.0 | 3.0 | 0.00 | 0.00 | 0.00 | 57 | 1015.2 |
| 20260509110034 | 50 | 57 | 1.0 | 5.0 | 0.00 | 0.00 | 0.00 | 60 | 1015.0 |
| 20260509104537 | 51 | 120 | 4.0 | 11.0 | 0.00 | 0.00 | 0.00 | 49 | 1014.8 |
| 20260509103043 | 51 | 156 | 4.0 | 6.0 | 0.00 | 0.00 | 0.00 | 57 | 1014.5 |
| 20260509101543 | 50 | 105 | 4.0 | 8.0 | 0.00 | 0.00 | 0.00 | 58 | 1014.4 |
| 20260509100058 | 49 | 121 | 5.0 | 6.0 | 0.00 | 0.00 | 0.00 | 65 | 1014.2 |
| 20260509094541 | 48 | 101 | 2.0 | 5.0 | 0.00 | 0.00 | 0.00 | 68 | 1014.0 |
| 20260509093037 | 49 | 38 | 1.0 | 5.0 | 0.00 | 0.00 | 0.00 | 65 | 1013.8 |
| 20260509091556 | 51 | 275 | 3.0 | 8.0 | 0.00 | 0.00 | 0.00 | 60 | 1013.5 |
| 20260509090042 | 52 | 283 | 2.0 | 7.0 | 0.00 | 0.00 | 0.00 | 58 | 1013.3 |
| 20260509084538 | 54 | 169 | 1.0 | 4.0 | 0.00 | 0.01 | 0.00 | 54 | 1013.1 |
| 20260509083047 | 55 | 165 | 3.0 | 6.0 | 0.00 | 0.01 | 0.00 | 52 | 1012.8 |
| 20260509081556 | 55 | 0 | 0.0 | 1.0 | 0.00 | 0.01 | 0.00 | 51 | 1012.8 |
| 20260509080044 | 57 | 153 | 3.0 | 12.0 | 0.00 | 0.01 | 0.00 | 48 | 1012.9 |
| 20260509074541 | 58 | 222 | 5.0 | 9.0 | 0.00 | 0.01 | 0.00 | 47 | 1012.8 |
| 20260509073045 | 58 | 150 | 2.0 | 4.0 | 0.00 | 0.01 | 0.00 | 47 | 1012.6 |
| 20260509071540 | 58 | 155 | 3.0 | 4.0 | 0.00 | 0.01 | 0.00 | 47 | 1012.6 |
| 20260509070038 | 59 | 74 | 3.0 | 7.0 | 0.00 | 0.01 | 0.00 | 44 | 1012.6 |
| 20260509064535 | 59 | 70 | 4.0 | 6.0 | 0.00 | 0.01 | 0.00 | 46 | 1012.5 |
| 20260509063041 | 60 | 348 | 4.0 | 8.0 | 0.00 | 0.01 | 0.00 | 46 | 1012.3 |
| 20260509061555 | 60 | 311 | 2.0 | 7.0 | 0.00 | 0.01 | 0.00 | 44 | 1012.1 |
| 20260509060038 | 61 | 304 | 5.0 | 12.0 | 0.00 | 0.01 | 0.00 | 42 | 1012.1 |
| 20260509054546 | 61 | 316 | 7.0 | 14.0 | 0.00 | 0.01 | 0.01 | 43 | 1012.1 |
| 20260509053051 | 61 | 328 | 12.0 | 29.0 | 0.00 | 0.01 | 0.01 | 42 | 1011.9 |
| 20260509051548 | 61 | 330 | 11.0 | 17.0 | 0.00 | 0.01 | 0.01 | 44 | 1011.5 |
| 20260509050043 | 61 | 319 | 5.0 | 17.0 | 0.00 | 0.01 | 0.01 | 44 | 1011.4 |
| 20260509044545 | 62 | 339 | 11.0 | 28.0 | 0.00 | 0.01 | 0.01 | 42 | 1011.4 |
| 20260509043043 | 62 | 325 | 14.0 | 29.0 | 0.00 | 0.01 | 0.01 | 42 | 1011.6 |
| 20260509041536 | 62 | 322 | 18.0 | 30.0 | 0.00 | 0.01 | 0.01 | 42 | 1011.4 |
| 20260509040044 | 62 | 338 | 21.0 | 33.0 | 0.00 | 0.01 | 0.01 | 42 | 1011.2 |
| 20260509034543 | 63 | 327 | 22.0 | 32.0 | 0.00 | 0.01 | 0.01 | 40 | 1011.0 |
| 20260509033038 | 64 | 325 | 20.0 | 32.0 | 0.00 | 0.01 | 0.01 | 39 | 1011.0 |
| 20260509031537 | 64 | 345 | 19.0 | 28.0 | 0.00 | 0.01 | 0.01 | 38 | 1010.5 |
| 20260509030042 | 63 | 315 | 15.0 | 22.0 | 0.00 | 0.01 | 0.01 | 39 | 1010.5 |
| 20260509024542 | 63 | 292 | 2.0 | 6.0 | 0.00 | 0.01 | 0.01 | 39 | 1010.4 |
| 20260509023041 | 63 | 311 | 2.0 | 6.0 | 0.00 | 0.01 | 0.01 | 39 | 1010.2 |
| 20260509021538 | 65 | 342 | 6.0 | 8.0 | 0.00 | 0.01 | 0.01 | 36 | 1009.9 |
| 20260509020043 | 66 | 344 | 5.0 | 6.0 | 0.00 | 0.01 | 0.01 | 35 | 1009.7 |
| 20260509014542 | 66 | 290 | 5.0 | 9.0 | 0.00 | 0.02 | 0.01 | 34 | 1009.7 |
| 20260509013042 | 67 | 323 | 7.0 | 13.0 | 0.00 | 0.02 | 0.01 | 34 | 1009.7 |
| 20260509011538 | 67 | 347 | 13.0 | 19.0 | 0.00 | 0.02 | 0.01 | 31 | 1009.6 |
| 20260509010037 | 68 | 328 | 13.0 | 18.0 | 0.00 | 0.02 | 0.01 | 30 | 1009.7 |
| 20260509004538 | 68 | 330 | 15.0 | 23.0 | 0.00 | 0.03 | 0.01 | 31 | 1009.9 |
| 20260509003040 | 68 | 346 | 15.0 | 23.0 | 0.00 | 0.03 | 0.01 | 30 | 1009.9 |
| 20260509001542 | 69 | 348 | 16.0 | 29.0 | 0.00 | 0.03 | 0.01 | 29 | 1009.9 |
| 20260509000040 | 69 | 328 | 20.0 | 29.0 | 0.00 | 0.03 | 0.01 | 29 | 1009.9 |
| 20260508234537 | 69 | 306 | 16.0 | 26.0 | 0.00 | 0.10 | 0.01 | 28 | 1010.0 |
| 20260508233035 | 70 | 305 | 13.0 | 25.0 | 0.00 | 0.10 | 0.01 | 27 | 1010.3 |
| 20260508231604 | 70 | 310 | 13.0 | 26.0 | 0.00 | 0.10 | 0.01 | 27 | 1010.1 |
| 20260508230054 | 71 | 338 | 12.0 | 26.0 | 0.00 | 0.10 | 0.01 | 26 | 1010.0 |
| 20260508224542 | 72 | 266 | 16.0 | 30.0 | 0.00 | 0.10 | 0.01 | 24 | 1010.2 |
| 20260508223042 | 71 | 297 | 14.0 | 25.0 | 0.00 | 0.10 | 0.01 | 23 | 1010.1 |
| 20260508221536 | 70 | 340 | 21.0 | 29.0 | 0.00 | 0.10 | 0.01 | 24 | 1010.1 |
| 20260508220044 | 70 | 327 | 16.0 | 30.0 | 0.00 | 0.10 | 0.01 | 26 | 1010.4 |
| 20260508214554 | 70 | 299 | 9.0 | 27.0 | 0.00 | 0.14 | 0.01 | 24 | 1010.4 |
| 20260508213048 | 70 | 310 | 14.0 | 26.0 | 0.00 | 0.14 | 0.01 | 27 | 1010.6 |
| 20260508211542 | 69 | 322 | 21.0 | 32.0 | 0.00 | 0.14 | 0.01 | 29 | 1011.0 |
| 20260508210052 | 69 | 320 | 18.0 | 26.0 | 0.00 | 0.14 | 0.01 | 29 | 1011.1 |
| 20260508204545 | 70 | 335 | 7.0 | 23.0 | 0.00 | 0.14 | 0.01 | 31 | 1011.2 |
| 20260508203041 | 69 | 301 | 11.0 | 25.0 | 0.00 | 0.14 | 0.01 | 32 | 1011.3 |
| 20260508201547 | 69 | 315 | 12.0 | 24.0 | 0.00 | 0.14 | 0.01 | 32 | 1011.3 |
| 20260508200044 | 68 | 324 | 12.0 | 23.0 | 0.00 | 0.14 | 0.01 | 33 | 1011.4 |
| 20260508194534 | 69 | 326 | 13.0 | 23.0 | 0.00 | 0.14 | 0.01 | 34 | 1011.5 |
| 20260508193051 | 68 | 195 | 7.0 | 18.0 | 0.00 | 0.14 | 0.01 | 36 | 1011.6 |
| 20260508191543 | 67 | 340 | 12.0 | 27.0 | 0.00 | 0.14 | 0.01 | 36 | 1011.8 |
| 20260508190042 | 67 | 210 | 9.0 | 20.0 | 0.00 | 0.14 | 0.01 | 39 | 1011.8 |
| 20260508184540 | 67 | 319 | 11.0 | 19.0 | 0.00 | 0.14 | 0.01 | 37 | 1011.9 |
| 20260508183035 | 67 | 293 | 10.0 | 21.0 | 0.00 | 0.14 | 0.01 | 38 | 1012.1 |